VDPP METAR and TAF | Updated Today

VDPP METAR

Phnom Penh International Airport

Observation time: 13 min. ago

VDPP 061930Z 19005KT 9000 FEW017 26/24 Q1008

Need help? Read our tutorial on how to read METARs or read the parsed version below.

Phnom Penh International Airport (VDPP) METAR

  • Weather conditions on Mon, 06 Feb 2023 19:30:00 +0000 (13 min. ago):
  • Present conditions: Dry
  • Clouds: A few at 518 meters
  • Visibility: 9000 meters
  • Wind: 190 degrees at 5 knots
  • Temperature: 26 celsius
  • Dew point: 24 celsius
  • Pressure: 1008 millibars
  • Remarks: None


Useful to know...

VDPP TAF

Phnom Penh International Airport

TAF VDPP 061700Z 0618/0712 12005KT 9999 SCT017
Observation time: 2:43 hr. ago
Need help? Read our tutorial on how to read TAFs or read the parsed version below.

Parsed version of TAF for Phnom Penh International Airport (VDPP)

  • From 06 February at 18:00 UTC, to day 07 of the month at 12:00 UTC
  • Clouds: Scattered at 518 meters
  • Visibility: Greater than 10 km
  • Wind: 120 degrees at 5

Airports near VDPP

No airports found within 100nm radius.